Time;durP1;ratioP1;P1;durP2;ratioP2;P2;SDS_P1;SDS_P2;PMS_P1;PMS_P2;Temp;Humidity;BMP_temperature;BMP_pressure;BME280_temperature;BME280_humidity;BME280_pressure;Samples;Min_cycle;Max_cycle;Signal;HPM_P1;HPM_P2
2023/09/06 00:00:28;;;;;;;3.10;2.42;;;19.80;98.40;;;20.09;70.31;101399.81;5096720;28;20909;-75
2023/09/06 00:03:04;;;;;;;4.40;2.58;;;20.00;98.20;;;19.88;70.95;101402.69;5096072;28;20475;-76
2023/09/06 00:05:41;;;;;;;3.60;2.60;;;19.90;98.40;;;19.86;71.21;101407.50;5095911;28;20420;-76
2023/09/06 00:08:16;;;;;;;2.85;2.53;;;19.80;98.80;;;19.92;70.59;101403.97;5096442;28;20489;-75
2023/09/06 00:10:49;;;;;;;2.70;2.38;;;20.00;98.20;;;19.73;71.29;101411.84;5095867;28;20424;-75
2023/09/06 00:13:23;;;;;;;4.22;2.70;;;19.70;98.80;;;19.87;71.34;101410.00;5095691;28;20493;-76
2023/09/06 00:15:56;;;;;;;5.20;2.72;;;19.80;99.00;;;19.83;71.09;101402.50;5095492;28;20855;-76
2023/09/06 00:18:30;;;;;;;3.00;2.57;;;19.80;98.90;;;19.83;71.09;101405.22;5096643;28;20557;-76
2023/09/06 00:21:05;;;;;;;4.60;2.50;;;19.80;98.70;;;19.77;71.79;101403.28;5095693;28;20434;-76
2023/09/06 00:23:40;;;;;;;3.77;2.50;;;19.70;99.10;;;19.71;71.59;101404.97;5095586;28;21015;-76
2023/09/06 00:26:13;;;;;;;3.70;2.47;;;19.60;99.10;;;19.71;71.21;101403.09;5096453;28;20489;-76
2023/09/06 00:28:46;;;;;;;3.33;2.40;;;19.60;99.20;;;19.83;71.32;101403.31;5095137;28;21017;-76
2023/09/06 00:31:20;;;;;;;4.72;2.20;;;19.80;99.00;;;19.90;70.21;101400.63;5095527;28;20439;-76
2023/09/06 00:33:54;;;;;;;4.22;2.47;;;19.90;98.60;;;19.73;71.59;101398.25;5095955;28;20432;-76
2023/09/06 00:36:29;;;;;;;4.05;2.50;;;19.70;98.90;;;19.53;70.90;101397.34;5095917;28;20460;-76
2023/09/06 00:38:57;;;;;;;6.40;2.55;;;19.50;98.70;;;19.50;72.33;101396.94;5138003;22;20454;-80
2023/09/06 00:41:28;;;;;;;3.28;2.55;;;19.50;99.50;;;19.24;72.39;101395.75;5129875;27;20465;-78
2023/09/06 00:43:56;;;;;;;5.50;2.60;;;19.10;99.90;;;19.28;73.04;101393.44;5130619;27;20449;-81
2023/09/06 00:46:25;;;;;;;4.70;2.60;;;18.90;99.90;;;19.14;73.67;101406.09;5130091;27;20436;-80
2023/09/06 00:48:55;;;;;;;3.88;2.47;;;19.00;99.90;;;19.05;73.75;101395.63;5130963;27;20523;-81
2023/09/06 00:51:23;;;;;;;4.70;2.80;;;19.00;99.90;;;19.25;72.30;101402.84;5130647;27;20433;-81
2023/09/06 00:53:51;;;;;;;4.70;2.70;;;19.30;99.90;;;19.12;72.82;101396.50;5130585;27;20453;-80
2023/09/06 00:56:20;;;;;;;5.38;2.78;;;19.10;99.90;;;19.00;73.81;101393.53;5107534;27;20423;-80
2023/09/06 00:58:49;;;;;;;4.35;2.55;;;18.90;99.90;;;18.97;74.23;101398.50;5127123;27;20457;-80
2023/09/06 01:01:17;;;;;;;3.85;2.40;;;18.90;99.90;;;18.94;73.69;101398.91;5116360;27;20909;-80
2023/09/06 01:03:46;;;;;;;4.25;2.35;;;18.90;99.90;;;18.93;74.15;101398.06;5110624;28;20435;-80
2023/09/06 01:06:24;;;;;;;2.80;2.37;;;18.80;99.90;;;18.96;73.87;101394.09;5128372;27;20539;-80
2023/09/06 01:08:56;;;;;;;4.75;2.70;;;19.00;99.90;;;18.94;73.87;101396.19;5116797;27;20449;-80
2023/09/06 01:11:27;;;;;;;3.35;2.30;;;18.80;99.90;;;18.90;73.71;101400.34;5102011;28;20433;-81
2023/09/06 01:13:59;;;;;;;2.83;2.53;;;18.90;99.90;;;18.98;73.72;101392.88;5097876;28;20468;-80
2023/09/06 01:16:38;;;;;;;4.68;2.60;;;19.00;99.90;;;18.87;73.48;101403.44;5102030;28;20450;-80
2023/09/06 01:19:18;;;;;;;3.30;2.40;;;18.30;99.90;;;18.77;74.39;101397.53;5107714;28;20458;-80
2023/09/06 01:22:10;;;;;;;3.87;2.20;;;18.80;99.90;;;18.92;73.41;101395.53;5103618;28;20286;-80
2023/09/06 01:24:50;;;;;;;3.40;2.22;;;18.90;99.90;;;18.94;73.25;101396.19;5104333;28;20689;-80
2023/09/06 01:27:35;;;;;;;4.45;2.72;;;18.90;99.90;;;18.90;72.27;101397.63;5105202;28;20443;-81
2023/09/06 01:30:20;;;;;;;3.05;2.40;;;19.00;99.90;;;18.69;73.75;101384.97;5108413;28;20911;-80
2023/09/06 01:33:00;;;;;;;3.72;2.50;;;18.60;99.90;;;18.50;74.86;101397.31;5101860;28;20840;-80
2023/09/06 01:35:35;;;;;;;4.10;2.70;;;18.50;99.90;;;18.55;75.18;101397.59;5102742;28;20450;-80
2023/09/06 01:38:09;;;;;;;5.07;2.97;;;18.50;99.90;;;18.47;74.79;101394.97;5105641;28;20445;-80
2023/09/06 01:40:53;;;;;;;3.55;2.75;;;18.50;99.90;;;18.61;74.44;101391.38;5102820;28;20436;-81
2023/09/06 01:46:48;;;;;;;4.38;2.80;;;18.70;99.90;;;18.32;75.67;101391.53;5095742;28;20446;-80
2023/09/06 01:49:57;;;;;;;5.47;3.00;;;19.10;99.90;;;18.28;76.32;101397.50;5107990;28;21329;-80
2023/09/06 01:53:16;;;;;;;4.95;2.88;;;18.40;99.90;;;18.27;76.11;101388.53;5099307;28;20423;-80
2023/09/06 01:56:41;;;;;;;3.70;2.47;;;18.30;99.90;;;18.41;75.25;101400.34;5108386;28;20295;-80
2023/09/06 01:59:51;;;;;;;4.30;3.00;;;18.50;99.90;;;18.27;75.43;101398.53;5094284;28;20835;-80
2023/09/06 02:02:44;;;;;;;4.93;3.20;;;16.70;99.90;;;18.05;76.81;101397.69;5098715;28;20417;-80
2023/09/06 02:06:38;;;;;;;5.65;3.10;;;17.70;99.90;;;17.91;76.67;101401.31;5104709;28;20455;-80
2023/09/06 02:09:45;;;;;;;4.82;2.90;;;19.10;99.90;;;17.96;76.94;101398.84;5097919;28;20439;-80
2023/09/06 02:13:07;;;;;;;5.07;2.97;;;18.00;99.90;;;18.12;74.63;101402.16;5101760;28;20474;-80
2023/09/06 02:19:21;;;;;;;;;;;;;;;;;;;;;
2023/09/06 02:22:33;;;;;;;3.88;2.80;;;18.80;99.90;;;17.98;75.01;101413.06;5099279;28;20526;-80
2023/09/06 02:25:46;;;;;;;4.30;3.10;;;18.30;99.90;;;17.88;75.94;101412.50;5095660;28;20458;-80
2023/09/06 02:29:12;;;;;;;6.50;3.00;;;18.60;99.90;;;17.81;76.61;101417.03;5085229;28;20440;-80
2023/09/06 02:32:17;;;;;;;4.75;3.17;;;18.90;99.90;;;17.94;75.43;101412.63;5097523;28;20440;-80
2023/09/06 02:39:16;;;;;;;4.00;2.88;;;17.00;99.90;;;17.76;75.92;101430.31;5104292;28;20471;-80
2023/09/06 02:46:03;;;;;;;3.30;3.00;;;20.10;99.90;;;17.86;75.30;101420.00;5100984;28;20613;-79
2023/09/06 02:52:56;;;;;;;5.03;3.28;;;17.50;99.90;;;17.57;76.34;101421.75;5098980;28;20425;-79
2023/09/06 02:59:02;;;;;;;4.93;3.30;;;16.40;99.90;;;17.45;77.47;101428.66;4947200;28;20444;-81
2023/09/06 03:05:41;;;;;;;4.53;3.17;;;15.30;99.90;;;17.22;76.97;101428.75;4996282;28;20449;-80
2023/09/06 03:12:21;;;;;;;4.05;3.20;;;19.40;99.90;;;17.38;76.58;101435.84;4999940;28;20467;-79
2023/09/06 03:15:28;;;;;;;6.47;3.90;;;17.20;99.90;;;17.10;77.55;101435.66;4998528;28;20861;-79
2023/09/06 03:18:40;;;;;;;6.68;5.00;;;17.30;99.90;;;17.17;77.14;101442.00;4996621;28;20427;-79
2023/09/06 03:25:32;;;;;;;8.18;6.10;;;18.10;99.90;;;17.22;76.66;101436.03;4999705;28;20456;-79
2023/09/06 03:29:10;;;;;;;9.55;7.68;;;17.30;99.90;;;17.16;76.73;101440.31;4993913;28;20786;-79
2023/09/06 03:32:15;;;;;;;9.68;7.85;;;18.60;99.90;;;16.99;78.35;101448.78;5000281;28;20427;-79
2023/09/06 03:39:28;;;;;;;;;;;;;;;;;;;;;
2023/09/06 03:45:50;;;;;;;;;;;;;;;;;;;;;
2023/09/06 03:49:10;;;;;;;11.48;7.53;;;18.70;99.90;;;16.95;77.93;101458.31;4928503;29;20457;-80
2023/09/06 03:52:39;;;;;;;8.07;6.85;;;18.50;99.90;;;17.07;76.93;101464.94;4924388;29;20437;-80
2023/09/06 03:55:57;;;;;;;9.10;6.78;;;17.90;99.90;;;17.11;76.86;101458.97;4929401;29;20457;-78
2023/09/06 03:59:06;;;;;;;7.82;6.63;;;16.20;99.90;;;17.04;75.83;101462.59;4924343;29;20469;-80
2023/09/06 04:01:51;;;;;;;7.72;6.60;;;17.50;99.90;;;17.07;76.31;101459.53;4925691;29;20995;-80
2023/09/06 04:04:43;;;;;;;10.10;6.43;;;18.80;99.90;;;17.06;76.83;101460.53;4929513;29;20453;-79
2023/09/06 04:07:20;;;;;;;6.93;5.60;;;17.30;99.90;;;17.04;77.42;101465.31;5037232;22;20478;-65
2023/09/06 04:09:56;;;;;;;7.22;5.70;;;17.20;99.90;;;16.82;77.56;101463.50;5050578;28;20937;-72
2023/09/06 04:12:29;;;;;;;7.15;5.35;;;17.10;99.90;;;16.96;77.10;101460.81;5051618;28;20424;-73
2023/09/06 04:15:03;;;;;;;8.15;5.30;;;17.20;99.90;;;16.85;77.50;101463.97;5052181;28;20427;-73
2023/09/06 04:17:38;;;;;;;7.80;5.47;;;16.20;99.90;;;16.77;78.58;101471.31;5051629;28;20431;-73
2023/09/06 04:23:04;;;;;;;6.95;5.50;;;16.80;99.90;;;16.56;78.99;101467.44;5047564;28;20460;-74
2023/09/06 04:25:41;;;;;;;6.65;5.53;;;16.70;99.90;;;16.63;79.50;101468.41;5052343;28;20446;-74
2023/09/06 04:28:16;;;;;;;7.20;5.30;;;16.80;99.90;;;16.69;77.86;101466.81;5051900;28;20493;-74
2023/09/06 04:30:51;;;;;;;6.43;4.70;;;16.90;99.90;;;16.83;77.40;101462.47;5053183;28;20506;-74
2023/09/06 04:33:25;;;;;;;8.90;5.50;;;17.20;99.90;;;16.72;76.98;101461.91;5054750;28;20427;-72
2023/09/06 04:35:58;;;;;;;8.20;5.03;;;16.90;99.90;;;16.84;76.88;101462.31;5056674;28;20443;-72
2023/09/06 04:38:32;;;;;;;11.18;5.30;;;17.10;99.90;;;16.71;77.27;101462.91;5055275;28;20899;-72
2023/09/06 04:41:06;;;;;;;6.88;5.00;;;17.00;99.90;;;16.63;77.96;101471.09;5055490;28;20519;-72
2023/09/06 04:43:40;;;;;;;8.00;5.57;;;16.80;99.90;;;16.48;78.28;101478.28;5055491;28;20442;-72
2023/09/06 04:46:14;;;;;;;9.00;5.45;;;16.80;99.90;;;16.48;78.48;101470.16;5055136;28;20828;-73
2023/09/06 04:48:49;;;;;;;7.65;5.32;;;16.70;99.90;;;16.58;78.20;101467.25;5055191;28;20490;-73
2023/09/06 04:51:22;;;;;;;7.80;5.10;;;16.80;99.90;;;16.67;77.96;101469.72;5056075;28;20234;-73
2023/09/06 04:53:55;;;;;;;8.15;5.10;;;17.00;99.90;;;16.52;78.18;101468.78;5055640;28;20424;-73
2023/09/06 04:56:30;;;;;;;7.22;5.25;;;16.80;99.90;;;16.23;80.22;101469.50;5054814;28;20428;-73
2023/09/06 04:59:04;;;;;;;7.28;5.20;;;16.40;99.90;;;16.04;82.37;101467.28;5054777;28;20497;-73
2023/09/06 05:01:37;;;;;;;7.55;4.85;;;16.20;99.90;;;16.04;81.95;101469.97;5055244;28;20439;-73
2023/09/06 05:04:11;;;;;;;7.13;4.70;;;16.30;99.90;;;16.11;81.87;101468.25;5054694;28;20454;-73
2023/09/06 05:06:45;;;;;;;7.45;4.50;;;16.30;99.90;;;16.07;82.27;101468.78;5054558;28;20431;-73
2023/09/06 05:09:19;;;;;;;6.30;3.90;;;16.30;99.90;;;16.18;82.17;101481.88;5054056;28;20885;-73
2023/09/06 05:11:53;;;;;;;5.85;4.00;;;16.50;99.90;;;16.17;81.44;101472.09;5054588;28;20427;-73
2023/09/06 05:14:26;;;;;;;6.90;4.05;;;16.40;99.90;;;16.19;81.45;101479.00;5054534;28;20508;-73
2023/09/06 05:16:59;;;;;;;6.30;3.83;;;16.40;99.90;;;16.12;82.66;101480.75;5054923;28;20482;-73
2023/09/06 05:19:33;;;;;;;6.77;4.30;;;16.40;99.90;;;16.10;82.60;101479.22;5054535;28;20515;-73
2023/09/06 05:22:07;;;;;;;6.38;4.05;;;16.30;99.90;;;16.21;81.71;101482.38;5055088;28;20424;-73
2023/09/06 05:24:40;;;;;;;6.57;4.25;;;16.50;99.90;;;16.25;82.21;101480.16;5054511;28;20523;-72
2023/09/06 05:27:14;;;;;;;9.75;4.32;;;16.70;99.90;;;16.20;82.13;101485.22;5054667;28;20478;-72
2023/09/06 05:29:49;;;;;;;10.37;4.30;;;16.60;99.90;;;16.31;82.04;101486.69;5056076;28;20557;-72
2023/09/06 05:32:22;;;;;;;7.75;4.35;;;17.30;99.90;;;16.40;81.67;101486.47;5054371;28;20466;-73
2023/09/06 05:34:56;;;;;;;7.43;4.30;;;16.70;99.90;;;16.42;82.01;101481.72;5053941;28;20424;-72
2023/09/06 05:37:29;;;;;;;7.97;4.30;;;16.80;99.90;;;16.48;81.34;101483.69;5054186;28;20771;-72
2023/09/06 05:40:04;;;;;;;8.07;4.28;;;16.80;99.90;;;16.49;82.00;101489.94;5053752;28;20844;-73
2023/09/06 05:42:38;;;;;;;6.95;4.45;;;16.80;99.90;;;16.46;84.41;101490.31;5053129;28;20774;-73
2023/09/06 05:45:13;;;;;;;6.18;4.20;;;16.80;99.90;;;16.52;83.38;101490.41;5054365;28;20424;-73
2023/09/06 05:47:47;;;;;;;8.68;4.10;;;16.80;99.90;;;16.54;83.19;101493.78;5053825;28;20504;-73
2023/09/06 05:50:21;;;;;;;7.68;4.80;;;16.90;99.90;;;16.58;83.14;101495.13;5053954;28;20455;-73
2023/09/06 05:52:55;;;;;;;8.38;4.82;;;16.90;99.90;;;16.56;84.39;101508.00;5053513;28;20420;-73
2023/09/06 05:55:28;;;;;;;11.27;5.30;;;16.80;99.90;;;16.60;85.21;101508.47;5053855;28;20481;-72
2023/09/06 05:58:02;;;;;;;9.93;5.60;;;16.90;99.90;;;16.61;85.24;101505.56;5053510;28;20430;-72
2023/09/06 06:00:36;;;;;;;8.95;4.78;;;16.90;99.90;;;16.65;84.81;101504.19;5053459;28;20455;-73
2023/09/06 06:03:10;;;;;;;13.27;5.60;;;17.00;99.90;;;16.68;86.09;101517.34;5053747;28;20423;-73
2023/09/06 06:05:44;;;;;;;11.77;5.50;;;17.10;99.90;;;16.68;86.29;101511.94;5053486;28;20432;-73
2023/09/06 06:08:17;;;;;;;10.27;5.68;;;17.00;99.90;;;16.70;87.01;101511.78;5053254;28;20783;-73
2023/09/06 06:10:52;;;;;;;9.50;5.20;;;17.00;99.90;;;16.73;85.38;101506.00;5053277;28;20443;-73
2023/09/06 06:13:26;;;;;;;10.65;5.72;;;17.20;99.90;;;16.76;86.21;101521.00;5053299;28;20493;-73
2023/09/06 06:15:59;;;;;;;9.98;5.70;;;17.10;99.90;;;16.78;87.08;101514.41;5053795;28;20428;-73
2023/09/06 06:18:32;;;;;;;8.93;5.53;;;17.10;99.90;;;16.83;87.10;101517.41;5053628;28;20438;-73
2023/09/06 06:21:05;;;;;;;10.50;5.20;;;17.20;99.90;;;16.86;86.58;101518.91;5053085;28;20435;-73
2023/09/06 06:23:43;;;;;;;11.48;6.30;;;17.20;99.90;;;16.89;87.47;101518.53;5053164;28;20420;-73
2023/09/06 06:26:19;;;;;;;10.60;5.13;;;17.30;99.90;;;16.95;88.34;101523.22;5052904;28;20943;-73
2023/09/06 06:28:53;;;;;;;7.20;5.00;;;17.30;99.90;;;16.97;86.83;101526.59;5053482;28;20427;-73
2023/09/06 06:31:27;;;;;;;6.38;5.00;;;17.40;99.90;;;17.02;87.96;101526.88;5052449;28;20450;-73
2023/09/06 06:34:01;;;;;;;6.35;4.70;;;17.40;99.90;;;17.04;86.72;101522.97;5052785;28;20964;-73
2023/09/06 06:36:35;;;;;;;7.93;4.60;;;17.50;99.90;;;17.11;88.01;101526.63;5052990;28;20424;-74
2023/09/06 06:39:10;;;;;;;7.03;4.80;;;17.50;99.90;;;17.15;87.54;101529.81;5052631;28;20853;-73
2023/09/06 06:41:44;;;;;;;9.45;4.28;;;17.60;99.90;;;17.20;87.06;101521.97;5052919;28;20423;-73
2023/09/06 06:44:17;;;;;;;7.18;4.47;;;17.60;99.90;;;17.23;85.42;101532.41;5052813;28;20514;-73
2023/09/06 06:46:51;;;;;;;5.47;4.00;;;17.70;99.90;;;17.28;85.90;101530.00;5053371;28;20427;-73
2023/09/06 06:49:24;;;;;;;7.33;4.53;;;17.70;99.90;;;17.36;85.62;101532.63;5052414;28;20467;-73
2023/09/06 06:51:57;;;;;;;10.02;5.03;;;17.90;99.90;;;17.45;87.00;101534.22;5052893;28;20447;-73
2023/09/06 06:54:31;;;;;;;13.05;5.45;;;17.90;99.90;;;17.53;87.64;101530.59;5052716;28;20447;-73
2023/09/06 06:57:04;;;;;;;12.10;5.70;;;18.10;99.90;;;17.57;87.58;101529.19;5052220;28;20902;-73
2023/09/06 06:59:38;;;;;;;9.50;5.47;;;18.10;99.90;;;17.62;88.01;101532.19;5052447;28;20419;-73
2023/09/06 07:02:13;;;;;;;9.93;5.63;;;18.10;99.90;;;17.66;88.51;101528.94;5052776;28;20975;-73
2023/09/06 07:04:47;;;;;;;7.88;5.18;;;18.20;99.90;;;17.73;88.77;101535.28;5052737;28;20416;-73
2023/09/06 07:07:20;;;;;;;10.93;5.78;;;18.20;99.90;;;17.81;89.24;101530.81;5052225;28;20482;-73
2023/09/06 07:09:53;;;;;;;8.83;5.20;;;18.30;99.90;;;17.89;88.41;101538.81;5052554;28;20515;-73
2023/09/06 07:12:27;;;;;;;7.50;5.38;;;18.40;99.90;;;17.96;88.42;101545.16;5052022;28;20424;-73
2023/09/06 07:15:00;;;;;;;7.20;5.10;;;18.50;99.90;;;18.04;88.59;101542.34;5052244;28;20455;-73
2023/09/06 07:17:34;;;;;;;10.82;5.07;;;18.60;99.90;;;18.16;86.47;101546.25;5052307;28;20447;-73
2023/09/06 07:20:11;;;;;;;6.78;5.00;;;18.70;99.90;;;18.18;86.82;101544.19;5052736;28;20431;-73
2023/09/06 07:22:45;;;;;;;9.10;5.38;;;18.80;99.90;;;18.26;86.13;101541.34;5052470;28;20427;-73
2023/09/06 07:25:18;;;;;;;7.30;4.78;;;18.90;99.90;;;18.31;84.68;101544.34;5052649;28;20459;-73
2023/09/06 07:27:52;;;;;;;7.28;4.80;;;18.90;99.90;;;18.40;84.86;101540.47;5052414;28;20511;-73
2023/09/06 07:30:25;;;;;;;8.80;5.13;;;19.00;99.90;;;18.50;84.26;101543.75;5051655;28;20447;-73
2023/09/06 07:32:58;;;;;;;7.63;4.55;;;19.10;99.90;;;18.52;84.87;101549.84;5052588;28;20859;-73
2023/09/06 07:35:32;;;;;;;7.53;4.88;;;19.10;99.90;;;18.68;83.48;101549.56;5052321;28;20455;-73
2023/09/06 07:38:06;;;;;;;8.80;5.00;;;19.40;99.90;;;18.77;84.07;101549.47;5052300;28;20470;-73
2023/09/06 07:40:40;;;;;;;7.53;4.80;;;19.40;99.90;;;18.85;84.70;101554.72;5051963;28;20429;-73
2023/09/06 07:43:13;;;;;;;9.48;4.75;;;19.40;99.90;;;18.98;83.62;101552.13;5051745;28;20866;-73
2023/09/06 07:45:48;;;;;;;10.07;5.37;;;19.60;99.90;;;19.05;82.86;101555.75;5052257;28;20430;-73
2023/09/06 07:48:21;;;;;;;8.95;4.30;;;19.70;99.90;;;19.08;82.63;101558.91;5052085;28;20451;-73
2023/09/06 07:50:56;;;;;;;7.05;4.32;;;19.80;99.90;;;19.24;82.44;101553.22;5052166;28;20455;-73
2023/09/06 07:53:30;;;;;;;7.15;4.32;;;19.90;99.90;;;19.28;83.33;101553.63;5051927;28;20519;-73
2023/09/06 07:56:05;;;;;;;7.00;4.40;;;19.90;99.90;;;19.39;81.85;101554.97;5051937;28;20442;-73
2023/09/06 07:58:39;;;;;;;6.22;4.40;;;20.00;99.90;;;19.45;81.28;101557.75;5052424;28;20424;-73
2023/09/06 08:01:12;;;;;;;5.03;3.90;;;20.20;99.90;;;19.59;80.41;101555.97;5051660;28;20416;-73
2023/09/06 08:03:51;;;;;;;7.00;4.07;;;20.30;99.90;;;19.60;80.36;101558.50;5051994;28;20424;-73
2023/09/06 08:06:24;;;;;;;7.93;4.40;;;20.30;99.90;;;19.74;79.12;101560.25;5054801;28;20435;-72
2023/09/06 08:08:59;;;;;;;6.20;4.38;;;20.40;99.90;;;19.83;81.35;101562.81;5056153;28;20499;-73
2023/09/06 08:11:32;;;;;;;7.17;4.20;;;20.50;99.90;;;19.97;79.46;101559.09;5056716;28;20474;-73
2023/09/06 08:14:06;;;;;;;4.75;3.80;;;20.70;99.90;;;19.99;79.35;101557.03;5055987;28;20464;-73
2023/09/06 08:16:39;;;;;;;6.47;4.00;;;20.70;99.90;;;20.23;77.26;101570.09;5056458;28;20964;-73
2023/09/06 08:19:12;;;;;;;5.90;3.85;;;20.90;99.90;;;20.31;77.34;101571.84;5055511;28;20446;-73
2023/09/06 08:21:46;;;;;;;8.17;4.20;;;21.00;99.90;;;20.40;77.13;101571.47;5055648;28;20506;-73
2023/09/06 08:24:19;;;;;;;5.95;3.70;;;21.10;99.90;;;20.49;77.17;101570.22;5055675;28;20544;-73
2023/09/06 08:26:53;;;;;;;6.55;3.42;;;21.20;99.90;;;20.67;75.46;101573.22;5055565;28;20515;-73
2023/09/06 08:29:26;;;;;;;7.25;3.70;;;21.40;99.90;;;20.78;75.22;101568.19;5055365;28;20439;-73
2023/09/06 08:32:00;;;;;;;5.72;3.22;;;21.50;99.90;;;20.78;74.58;101576.38;5055172;28;20456;-73
2023/09/06 08:34:33;;;;;;;4.68;3.13;;;21.50;99.90;;;20.90;73.98;101567.38;5055322;28;20427;-73
2023/09/06 08:37:07;;;;;;;3.88;3.05;;;21.60;99.90;;;20.93;75.37;101566.09;5055245;28;20466;-73
2023/09/06 08:39:40;;;;;;;4.75;3.03;;;21.70;99.90;;;21.19;73.01;101571.63;5055029;28;20506;-73
2023/09/06 08:42:14;;;;;;;5.80;2.88;;;21.90;99.90;;;21.21;74.40;101575.78;5055244;28;20424;-73
2023/09/06 08:44:54;;;;;;;11.90;3.70;;;22.00;99.90;;;21.41;72.39;101572.22;5055243;28;20438;-73
2023/09/06 08:47:28;;;;;;;5.60;3.50;;;22.20;99.90;;;21.51;70.79;101562.56;5054998;28;20470;-72
2023/09/06 08:50:02;;;;;;;9.27;3.00;;;22.30;99.90;;;21.65;70.48;101560.66;5055223;28;20984;-73
2023/09/06 08:52:37;;;;;;;4.95;2.80;;;22.40;99.90;;;21.63;70.87;101569.06;5055697;28;20451;-73
2023/09/06 08:55:14;;;;;;;5.13;3.22;;;22.40;99.90;;;21.83;69.01;101568.16;5055797;28;20451;-73
2023/09/06 08:57:49;;;;;;;6.72;2.90;;;22.50;99.90;;;21.91;68.15;101559.78;5055743;28;20485;-73
2023/09/06 09:00:23;;;;;;;6.03;2.90;;;22.60;99.70;;;22.08;67.94;101570.00;5054758;28;20477;-73
2023/09/06 09:02:58;;;;;;;4.90;2.92;;;22.80;99.40;;;22.39;66.28;101566.50;5054750;28;20424;-73
2023/09/06 09:05:31;;;;;;;6.70;3.10;;;23.10;98.50;;;22.40;66.11;101568.16;5054685;28;20431;-73
2023/09/06 09:08:08;;;;;;;4.85;2.45;;;23.10;98.30;;;22.56;65.85;101572.28;5054435;28;20515;-73
2023/09/06 09:10:42;;;;;;;5.13;2.70;;;23.30;98.00;;;22.51;67.42;101574.81;5054669;28;20428;-73
2023/09/06 09:13:17;;;;;;;4.95;2.63;;;23.20;98.70;;;22.68;65.50;101573.28;5054994;28;20530;-73
2023/09/06 09:15:50;;;;;;;4.53;2.58;;;23.20;99.90;;;22.82;65.81;101565.84;5054276;28;20428;-74
2023/09/06 09:18:23;;;;;;;3.47;2.63;;;23.60;99.90;;;23.00;64.78;101563.19;5053545;28;20424;-73
2023/09/06 09:20:59;;;;;;;3.90;2.50;;;23.70;97.30;;;23.00;64.72;101572.22;5054322;28;20420;-73
2023/09/06 09:23:33;;;;;;;6.30;3.00;;;23.70;97.30;;;23.19;64.11;101570.38;5053983;28;20932;-73
2023/09/06 09:26:06;;;;;;;4.45;2.75;;;23.80;97.00;;;23.17;64.46;101567.03;5054348;28;20452;-74
2023/09/06 09:28:43;;;;;;;5.45;2.70;;;23.90;97.40;;;23.43;61.90;101560.53;5054212;28;20913;-74
2023/09/06 09:31:19;;;;;;;4.73;2.50;;;24.10;95.90;;;23.49;61.17;101568.69;5054143;28;20451;-73
2023/09/06 09:33:56;;;;;;;5.75;2.42;;;24.20;95.20;;;23.67;60.28;101560.50;5055344;28;20424;-73
2023/09/06 09:36:34;;;;;;;3.63;2.50;;;24.40;94.70;;;23.64;61.75;101555.47;5054115;28;20507;-73
2023/09/06 09:39:13;;;;;;;4.60;2.70;;;24.40;95.40;;;23.66;61.02;101561.53;5053735;28;20438;-73
2023/09/06 09:41:47;;;;;;;5.43;2.70;;;24.30;95.00;;;23.70;61.35;101562.78;5054584;28;20507;-73
2023/09/06 09:44:33;;;;;;;4.75;2.53;;;24.30;95.20;;;23.81;61.28;101560.34;5053750;28;20817;-73
2023/09/06 09:47:15;;;;;;;6.25;2.70;;;24.50;95.60;;;24.04;57.68;101566.78;5053906;28;20428;-73
2023/09/06 09:50:12;;;;;;;5.45;2.60;;;24.70;93.10;;;24.27;57.85;101568.88;5053611;28;20427;-73
2023/09/06 09:52:48;;;;;;;6.82;3.13;;;24.80;93.10;;;24.60;56.50;101566.50;5053710;28;20525;-74
2023/09/06 09:55:28;;;;;;;5.70;2.93;;;25.20;92.60;;;24.67;56.33;101571.88;5053686;28;20876;-74
2023/09/06 09:58:10;;;;;;;6.88;2.65;;;25.30;91.90;;;24.71;56.62;101573.94;5054871;28;20233;-74
2023/09/06 10:00:45;;;;;;;7.70;3.42;;;25.30;96.10;;;24.84;54.90;101581.16;5053628;28;20436;-74
2023/09/06 10:03:22;;;;;;;6.40;3.40;;;25.40;91.40;;;25.03;54.04;101573.69;5053595;28;20420;-74
2023/09/06 10:05:59;;;;;;;7.25;3.65;;;25.50;91.40;;;25.00;57.31;101568.69;5053811;28;20427;-74
2023/09/06 10:08:35;;;;;;;6.35;4.13;;;25.60;92.50;;;25.14;55.03;101568.22;5053705;28;20433;-74
2023/09/06 10:11:11;;;;;;;7.15;3.83;;;25.70;91.20;;;25.20;55.22;101571.94;5053326;28;20459;-74
2023/09/06 10:13:46;;;;;;;7.03;3.67;;;25.70;91.30;;;25.31;56.18;101579.31;5053387;28;20495;-74
2023/09/06 10:16:21;;;;;;;6.30;4.05;;;25.90;91.90;;;25.48;55.63;101572.06;5053430;28;20446;-74
2023/09/06 10:18:56;;;;;;;6.75;3.50;;;26.10;91.30;;;25.73;54.63;101564.44;5052934;28;20949;-74
2023/09/06 10:21:33;;;;;;;9.93;4.00;;;26.30;90.90;;;25.75;55.59;101566.13;5053544;28;20436;-74
2023/09/06 10:24:16;;;;;;;6.43;3.33;;;26.20;92.40;;;25.80;54.74;101558.00;5053194;28;20434;-74
2023/09/06 10:26:53;;;;;;;6.30;3.30;;;26.30;90.90;;;25.97;51.64;101558.91;5053134;28;20432;-74
2023/09/06 10:29:32;;;;;;;7.63;3.00;;;26.50;87.90;;;26.07;52.35;101553.63;5053570;28;20502;-74
2023/09/06 10:32:07;;;;;;;5.18;3.03;;;26.60;91.10;;;26.25;50.08;101555.41;5052979;28;20451;-74
2023/09/06 10:34:49;;;;;;;5.10;2.80;;;26.70;85.70;;;26.33;50.29;101558.63;5053577;28;20466;-74
2023/09/06 10:37:22;;;;;;;7.90;3.10;;;26.80;90.10;;;26.58;47.83;101566.47;5052960;28;20447;-74
2023/09/06 10:39:57;;;;;;;3.33;2.70;;;27.00;82.50;;;26.60;47.04;101564.34;5053235;28;20493;-74
2023/09/06 10:42:31;;;;;;;5.33;2.70;;;27.00;81.30;;;26.71;48.41;101557.97;5053210;28;20428;-73
2023/09/06 10:45:22;;;;;;;5.15;2.70;;;27.10;82.90;;;26.82;46.77;101556.25;5052776;28;20514;-73
2023/09/06 10:48:12;;;;;;;5.28;2.83;;;27.20;80.70;;;26.93;49.08;101558.09;5061307;28;20446;-73
2023/09/06 10:51:18;;;;;;;3.88;2.80;;;27.30;83.30;;;26.94;48.38;101559.75;5063705;28;20515;-73
2023/09/06 10:53:55;;;;;;;5.93;2.97;;;27.50;86.70;;;26.97;48.31;101559.25;5060893;28;20937;-72
2023/09/06 10:56:34;;;;;;;5.90;2.90;;;27.30;82.10;;;27.07;45.25;101556.69;5060219;28;20431;-73
2023/09/06 10:59:18;;;;;;;9.63;2.95;;;27.40;80.20;;;27.29;43.88;101557.63;5055631;28;20642;-73
2023/09/06 11:02:14;;;;;;;6.88;3.10;;;27.60;76.00;;;27.41;45.85;101549.25;5053193;28;20474;-73
2023/09/06 11:04:50;;;;;;;4.38;2.67;;;27.80;78.30;;;27.47;47.28;101562.84;5052806;28;20431;-73
2023/09/06 11:07:37;;;;;;;4.80;2.60;;;27.80;80.40;;;27.51;48.56;101555.78;5053002;28;20443;-73
2023/09/06 11:10:25;;;;;;;6.43;2.90;;;27.80;82.10;;;27.67;45.45;101554.91;5052353;28;20423;-73
2023/09/06 11:13:09;;;;;;;5.00;2.58;;;28.10;78.00;;;27.78;44.76;101563.28;5052433;28;20494;-73
2023/09/06 11:15:44;;;;;;;8.20;2.67;;;28.10;78.10;;;27.83;45.96;101563.38;5052454;28;20416;-73
2023/09/06 11:18:17;;;;;;;4.17;2.30;;;28.10;78.40;;;27.93;44.37;101563.50;5052592;28;20440;-73
2023/09/06 11:20:53;;;;;;;4.70;2.30;;;28.20;76.50;;;28.00;44.83;101561.41;5053100;28;20970;-73
2023/09/06 11:23:27;;;;;;;3.50;2.10;;;28.20;76.30;;;28.08;44.35;101563.75;5052453;28;20473;-73
2023/09/06 11:26:01;;;;;;;6.63;2.20;;;28.30;75.70;;;28.24;41.12;101564.75;5052901;28;20502;-73
2023/09/06 11:28:35;;;;;;;3.88;2.10;;;28.40;71.70;;;28.37;41.45;101569.84;5052706;28;20512;-73
2023/09/06 11:31:23;;;;;;;5.28;1.90;;;28.60;71.90;;;28.48;42.66;101566.97;5053001;28;20780;-74
2023/09/06 11:34:05;;;;;;;2.95;2.00;;;28.70;73.10;;;28.56;43.40;101569.25;5053253;28;20242;-74
2023/09/06 11:36:39;;;;;;;3.40;2.00;;;28.80;73.30;;;28.64;41.86;101566.03;5052473;28;20903;-74
2023/09/06 11:39:18;;;;;;;3.20;2.00;;;28.80;71.30;;;28.85;42.09;101572.59;5052264;28;20478;-74
2023/09/06 11:41:55;;;;;;;3.73;2.00;;;29.10;71.80;;;28.87;40.88;101578.69;5056274;28;20427;-74
2023/09/06 11:44:29;;;;;;;2.95;1.95;;;29.00;69.50;;;28.95;40.69;101572.69;5056537;28;20423;-74
2023/09/06 11:47:06;;;;;;;2.72;1.90;;;29.10;69.20;;;29.09;40.80;101567.56;5056953;28;20428;-74
2023/09/06 11:49:44;;;;;;;3.17;1.85;;;29.20;69.90;;;29.15;39.55;101569.28;5056945;28;20576;-74